Time;durP1;ratioP1;P1;durP2;ratioP2;P2;SDS_P1;SDS_P2;PMS_P1;PMS_P2;Temp;Humidity;BMP_temperature;BMP_pressure;BME280_temperature;BME280_humidity;BME280_pressure;Samples;Min_cycle;Max_cycle;Signal;HPM_P1;HPM_P2
2023/11/16 00:01:21;;;;;;;0.08;0.08;;;24.00;43.70;;;;;;5050809;28;20207;-50
2023/11/16 00:03:53;;;;;;;0.00;0.00;;;24.10;43.60;;;;;;5050465;28;20558;-55
2023/11/16 00:06:24;;;;;;;0.00;0.00;;;24.10;43.50;;;;;;5050071;28;20192;-48
2023/11/16 00:08:54;;;;;;;0.00;0.00;;;24.10;43.40;;;;;;5050594;28;20226;-56
2023/11/16 00:11:27;;;;;;;0.00;0.00;;;24.10;43.20;;;;;;5050655;28;20207;-53
2023/11/16 00:13:57;;;;;;;0.03;0.03;;;24.10;42.90;;;;;;5049626;28;20455;-52
2023/11/16 00:16:31;;;;;;;0.00;0.00;;;24.10;42.70;;;;;;5035712;28;20195;-50
2023/11/16 00:19:02;;;;;;;0.00;0.00;;;24.10;42.40;;;;;;5050466;28;20488;-56
2023/11/16 00:21:33;;;;;;;0.00;0.00;;;24.20;42.30;;;;;;5047814;28;20218;-53
2023/11/16 00:24:05;;;;;;;0.00;0.00;;;24.20;42.10;;;;;;5050514;28;20199;-56
2023/11/16 00:26:36;;;;;;;0.00;0.00;;;24.20;42.00;;;;;;5030991;28;20196;-54
2023/11/16 00:29:07;;;;;;;0.00;0.00;;;24.30;41.90;;;;;;5049898;28;20258;-54
2023/11/16 00:31:40;;;;;;;0.00;0.00;;;24.30;41.90;;;;;;5050135;28;20207;-51
2023/11/16 00:34:10;;;;;;;0.00;0.00;;;24.30;42.40;;;;;;5051159;28;20187;-55
2023/11/16 00:36:42;;;;;;;0.00;0.00;;;24.30;41.90;;;;;;5050665;28;20200;-53
2023/11/16 00:39:13;;;;;;;0.00;0.00;;;24.30;42.00;;;;;;5051193;28;20215;-54
2023/11/16 00:41:43;;;;;;;0.00;0.00;;;24.40;42.20;;;;;;5049845;28;20270;-55
2023/11/16 00:44:15;;;;;;;0.00;0.00;;;24.40;42.30;;;;;;5051518;28;20707;-56
2023/11/16 00:46:48;;;;;;;0.00;0.00;;;24.40;42.30;;;;;;5053985;28;20195;-51
2023/11/16 00:49:19;;;;;;;0.00;0.00;;;24.40;42.30;;;;;;5054392;28;20188;-51
2023/11/16 00:51:49;;;;;;;0.00;0.00;;;24.50;42.30;;;;;;5054001;28;20199;-51
2023/11/16 00:54:22;;;;;;;0.00;0.00;;;24.50;42.20;;;;;;5053843;28;20198;-54
2023/11/16 00:56:53;;;;;;;0.00;0.00;;;24.50;42.20;;;;;;5053815;28;20398;-56
2023/11/16 00:59:24;;;;;;;0.00;0.00;;;24.50;42.20;;;;;;5053619;28;20211;-56
2023/11/16 01:01:58;;;;;;;0.00;0.00;;;24.50;42.20;;;;;;5054121;28;20199;-55
2023/11/16 01:04:29;;;;;;;0.00;0.00;;;24.60;42.10;;;;;;5053906;28;20187;-53
2023/11/16 01:07:00;;;;;;;0.00;0.00;;;24.60;41.90;;;;;;5067845;28;20268;-55
2023/11/16 01:09:35;;;;;;;0.00;0.00;;;24.60;41.60;;;;;;5052990;28;20192;-55
2023/11/16 01:12:11;;;;;;;0.00;0.00;;;24.70;41.50;;;;;;5053368;28;20572;-50
2023/11/16 01:14:42;;;;;;;0.00;0.00;;;24.70;41.40;;;;;;5054248;28;20226;-51
2023/11/16 01:17:18;;;;;;;0.00;0.00;;;24.70;41.20;;;;;;5053195;28;20216;-55
2023/11/16 01:19:50;;;;;;;0.00;0.00;;;24.70;41.10;;;;;;5053747;28;20310;-53
2023/11/16 01:22:21;;;;;;;0.00;0.00;;;24.70;40.90;;;;;;5053894;28;20203;-54
2023/11/16 01:24:52;;;;;;;0.00;0.00;;;24.80;41.00;;;;;;5053446;28;20577;-53
2023/11/16 01:27:26;;;;;;;0.00;0.00;;;24.80;41.10;;;;;;5055657;28;20222;-55
2023/11/16 01:29:56;;;;;;;0.00;0.00;;;24.80;41.30;;;;;;5052990;28;20198;-54
2023/11/16 01:32:29;;;;;;;0.00;0.00;;;24.80;41.40;;;;;;5053927;28;20215;-52
2023/11/16 01:35:03;;;;;;;0.00;0.00;;;24.90;41.40;;;;;;5053451;28;20196;-54
2023/11/16 01:37:34;;;;;;;0.00;0.00;;;24.90;41.40;;;;;;5052697;28;20288;-55
2023/11/16 01:40:05;;;;;;;0.00;0.00;;;24.90;41.40;;;;;;5052276;28;20226;-56
2023/11/16 01:42:36;;;;;;;0.00;0.00;;;24.90;41.30;;;;;;5053329;28;20200;-57
2023/11/16 01:45:08;;;;;;;0.00;0.00;;;24.90;41.30;;;;;;5052641;28;20235;-53
2023/11/16 01:47:41;;;;;;;0.00;0.00;;;25.00;41.40;;;;;;5053279;28;20219;-57
2023/11/16 01:50:12;;;;;;;0.00;0.00;;;25.00;41.40;;;;;;5053322;28;20198;-55
2023/11/16 01:52:43;;;;;;;0.00;0.00;;;25.00;41.40;;;;;;5053283;28;20202;-45
2023/11/16 01:55:14;;;;;;;0.00;0.00;;;25.00;41.00;;;;;;5053204;28;20187;-53
2023/11/16 01:57:44;;;;;;;0.00;0.00;;;25.00;40.70;;;;;;5052640;28;20223;-51
2023/11/16 02:00:16;;;;;;;0.10;0.10;;;25.10;40.50;;;;;;5053006;28;20300;-48
2023/11/16 02:02:50;;;;;;;0.00;0.00;;;25.10;40.30;;;;;;5052855;28;20274;-55
2023/11/16 02:05:21;;;;;;;0.00;0.00;;;25.10;40.10;;;;;;5052673;28;20191;-53
2023/11/16 02:07:52;;;;;;;0.00;0.00;;;25.10;40.00;;;;;;5051175;28;20223;-57
2023/11/16 02:10:22;;;;;;;0.00;0.00;;;25.20;40.00;;;;;;5060936;28;20194;-56
2023/11/16 02:12:56;;;;;;;0.00;0.00;;;25.20;40.00;;;;;;5035156;28;20200;-56
2023/11/16 02:15:29;;;;;;;0.00;0.00;;;25.20;40.10;;;;;;5052398;28;20199;-56
2023/11/16 02:18:02;;;;;;;0.00;0.00;;;25.20;40.20;;;;;;5053113;28;20211;-56
2023/11/16 02:20:33;;;;;;;0.00;0.00;;;25.30;40.40;;;;;;5052331;28;20219;-51
2023/11/16 02:23:06;;;;;;;0.00;0.00;;;25.30;40.30;;;;;;5032720;28;20293;-56
2023/11/16 02:25:46;;;;;;;0.00;0.00;;;25.30;40.20;;;;;;5041677;28;20722;-56
2023/11/16 02:28:16;;;;;;;0.00;0.00;;;25.30;40.20;;;;;;5035314;28;20627;-55
2023/11/16 02:30:47;;;;;;;0.00;0.00;;;25.40;40.30;;;;;;5051653;28;20253;-48
2023/11/16 02:33:19;;;;;;;0.10;0.10;;;25.40;40.30;;;;;;5052949;28;20195;-56
2023/11/16 02:35:52;;;;;;;0.00;0.00;;;25.40;40.30;;;;;;5052108;28;20563;-56
2023/11/16 02:38:24;;;;;;;0.00;0.00;;;25.40;40.30;;;;;;5052258;28;20215;-50
2023/11/16 02:40:56;;;;;;;0.00;0.00;;;25.50;40.20;;;;;;5052213;28;20211;-56
2023/11/16 02:43:29;;;;;;;0.00;0.00;;;25.50;40.00;;;;;;5051566;28;20201;-55
2023/11/16 02:46:00;;;;;;;0.00;0.00;;;25.50;39.90;;;;;;5051770;28;20191;-54
2023/11/16 02:48:31;;;;;;;0.00;0.00;;;25.60;39.90;;;;;;5051411;28;20218;-56
2023/11/16 02:51:01;;;;;;;0.00;0.00;;;25.60;39.80;;;;;;5052518;28;20607;-48
2023/11/16 02:53:34;;;;;;;0.00;0.00;;;25.60;39.70;;;;;;5051397;28;20282;-55
2023/11/16 02:56:05;;;;;;;0.00;0.00;;;25.70;39.80;;;;;;5051598;28;20206;-55
2023/11/16 02:58:36;;;;;;;0.00;0.00;;;25.70;39.70;;;;;;5051205;28;20717;-55
2023/11/16 03:01:08;;;;;;;0.03;0.03;;;25.70;39.80;;;;;;5051219;28;20344;-50
2023/11/16 03:03:39;;;;;;;0.00;0.00;;;25.80;39.90;;;;;;5051168;28;20341;-56
2023/11/16 03:06:10;;;;;;;0.00;0.00;;;25.80;39.90;;;;;;5062475;28;20610;-51
2023/11/16 03:08:43;;;;;;;0.00;0.00;;;25.90;40.60;;;;;;5060112;28;20695;-55
2023/11/16 03:11:13;;;;;;;0.00;0.00;;;25.90;40.00;;;;;;5053677;28;20199;-55
2023/11/16 03:13:44;;;;;;;0.00;0.00;;;25.90;40.00;;;;;;5052171;28;20492;-54
2023/11/16 03:16:15;;;;;;;0.00;0.00;;;25.90;40.00;;;;;;5051392;28;20203;-55
2023/11/16 03:18:45;;;;;;;0.00;0.00;;;26.00;40.10;;;;;;5051410;28;20211;-54
2023/11/16 03:21:16;;;;;;;0.00;0.00;;;26.00;40.10;;;;;;5051181;28;20236;-55
2023/11/16 03:23:49;;;;;;;0.00;0.00;;;26.00;40.10;;;;;;5049423;28;20312;-53
2023/11/16 03:26:19;;;;;;;0.00;0.00;;;26.00;40.10;;;;;;5050494;28;20192;-55
2023/11/16 03:28:52;;;;;;;0.00;0.00;;;26.10;40.00;;;;;;5051669;28;20218;-56
2023/11/16 03:31:22;;;;;;;0.00;0.00;;;26.10;40.00;;;;;;5053775;28;20660;-57
2023/11/16 03:33:53;;;;;;;0.00;0.00;;;26.10;39.90;;;;;;5050516;28;20191;-45
2023/11/16 03:36:24;;;;;;;0.00;0.00;;;26.10;39.70;;;;;;5051161;28;20195;-55
2023/11/16 03:38:57;;;;;;;0.00;0.00;;;26.20;39.60;;;;;;5051045;28;20312;-54
2023/11/16 03:41:29;;;;;;;0.00;0.00;;;26.20;39.50;;;;;;5050605;28;20318;-55
2023/11/16 03:43:59;;;;;;;0.08;0.08;;;26.20;39.60;;;;;;5050610;28;20667;-55
2023/11/16 03:46:30;;;;;;;0.00;0.00;;;26.30;39.50;;;;;;5051691;28;20196;-57
2023/11/16 03:49:01;;;;;;;0.00;0.00;;;26.30;39.50;;;;;;5050394;28;20246;-54
2023/11/16 03:51:31;;;;;;;0.00;0.00;;;26.40;39.50;;;;;;5051255;28;20542;-54
2023/11/16 03:54:04;;;;;;;0.00;0.00;;;26.40;39.50;;;;;;5051066;28;20196;-53
2023/11/16 03:56:35;;;;;;;0.00;0.00;;;26.40;39.70;;;;;;5051319;28;20692;-57
2023/11/16 03:59:06;;;;;;;0.00;0.00;;;26.50;39.70;;;;;;5050332;28;20420;-58
2023/11/16 04:01:39;;;;;;;0.00;0.00;;;26.50;39.80;;;;;;5049835;28;20725;-53
2023/11/16 04:04:12;;;;;;;0.00;0.00;;;26.50;39.80;;;;;;5050748;28;20191;-50
2023/11/16 04:06:42;;;;;;;0.00;0.00;;;26.50;39.80;;;;;;5062752;28;20649;-48
2023/11/16 04:09:15;;;;;;;0.00;0.00;;;26.50;39.80;;;;;;5071313;28;20206;-54
2023/11/16 04:11:46;;;;;;;0.00;0.00;;;26.50;39.80;;;;;;5059007;28;20204;-54
2023/11/16 04:14:17;;;;;;;0.00;0.00;;;26.60;39.90;;;;;;5050805;28;20200;-52
2023/11/16 04:16:52;;;;;;;0.00;0.00;;;26.60;39.80;;;;;;5050218;28;20187;-57
2023/11/16 04:19:25;;;;;;;0.00;0.00;;;26.60;39.90;;;;;;5051992;28;20195;-55
2023/11/16 04:21:58;;;;;;;0.00;0.00;;;26.60;39.70;;;;;;5054923;28;20203;-51
2023/11/16 04:24:31;;;;;;;0.00;0.00;;;26.60;39.70;;;;;;5054559;28;20279;-55
2023/11/16 04:27:05;;;;;;;0.00;0.00;;;26.70;39.60;;;;;;5054424;28;20196;-53
2023/11/16 04:29:37;;;;;;;0.00;0.00;;;26.70;39.50;;;;;;5054041;28;20669;-53
2023/11/16 04:32:08;;;;;;;0.00;0.00;;;26.70;39.40;;;;;;5054930;28;20647;-56
2023/11/16 04:34:38;;;;;;;0.00;0.00;;;26.70;39.30;;;;;;5053570;28;20674;-54
2023/11/16 04:37:10;;;;;;;0.00;0.00;;;26.70;39.30;;;;;;5053438;28;20207;-52
2023/11/16 04:39:43;;;;;;;0.00;0.00;;;26.80;39.40;;;;;;5041222;28;20607;-55
2023/11/16 04:42:13;;;;;;;0.00;0.00;;;26.80;39.40;;;;;;5051478;28;20583;-54
2023/11/16 04:44:44;;;;;;;0.00;0.00;;;26.80;39.50;;;;;;5054403;28;20667;-52
2023/11/16 04:47:15;;;;;;;0.00;0.00;;;26.90;39.70;;;;;;5053520;28;20272;-54
2023/11/16 04:49:49;;;;;;;0.00;0.00;;;26.90;39.80;;;;;;5054045;28;20192;-54
2023/11/16 04:52:20;;;;;;;0.00;0.00;;;26.90;39.80;;;;;;5052601;28;20191;-55
2023/11/16 04:54:52;;;;;;;0.00;0.00;;;26.90;39.70;;;;;;5053857;28;20656;-54
2023/11/16 04:57:23;;;;;;;0.00;0.00;;;26.90;39.70;;;;;;5053634;28;20615;-55
2023/11/16 04:59:55;;;;;;;0.00;0.00;;;26.80;39.70;;;;;;5053351;28;20644;-56
2023/11/16 05:02:25;;;;;;;0.00;0.00;;;26.80;39.60;;;;;;5053183;28;20560;-54
2023/11/16 05:04:56;;;;;;;0.00;0.00;;;26.90;39.80;;;;;;5053815;28;20199;-52
2023/11/16 05:07:27;;;;;;;0.00;0.00;;;26.90;39.70;;;;;;5053630;28;20220;-52
2023/11/16 05:10:01;;;;;;;0.00;0.00;;;26.80;39.50;;;;;;5069319;28;20234;-52
2023/11/16 05:12:31;;;;;;;0.00;0.00;;;26.80;39.70;;;;;;5051216;28;20217;-54
2023/11/16 05:15:03;;;;;;;0.00;0.00;;;26.80;39.70;;;;;;5053959;28;20195;-55
2023/11/16 05:17:35;;;;;;;0.00;0.00;;;26.80;39.70;;;;;;5033764;28;20299;-54
2023/11/16 05:20:06;;;;;;;0.00;0.00;;;26.80;39.70;;;;;;5047032;28;20219;-56
2023/11/16 05:22:37;;;;;;;0.00;0.00;;;26.80;39.60;;;;;;5054178;28;20196;-55
2023/11/16 05:25:10;;;;;;;0.00;0.00;;;26.80;39.60;;;;;;5053729;28;20238;-56
2023/11/16 05:27:41;;;;;;;0.00;0.00;;;26.80;39.60;;;;;;5055095;28;20731;-53
2023/11/16 05:30:13;;;;;;;0.00;0.00;;;26.80;39.50;;;;;;5052744;28;20196;-53
2023/11/16 05:32:43;;;;;;;0.00;0.00;;;26.90;39.50;;;;;;5051592;28;20617;-54
2023/11/16 05:35:14;;;;;;;0.00;0.00;;;26.80;39.40;;;;;;5052936;28;20203;-55
2023/11/16 05:37:45;;;;;;;0.00;0.00;;;26.80;39.40;;;;;;5052229;28;20215;-56
2023/11/16 05:40:17;;;;;;;0.00;0.00;;;26.80;39.30;;;;;;5052360;28;20222;-55
2023/11/16 05:42:48;;;;;;;0.00;0.00;;;26.80;39.10;;;;;;5052563;28;20747;-55
2023/11/16 05:45:19;;;;;;;0.00;0.00;;;26.80;38.70;;;;;;5052833;28;20208;-51
2023/11/16 05:47:49;;;;;;;0.00;0.00;;;26.80;38.50;;;;;;5052127;28;20216;-51
2023/11/16 05:50:24;;;;;;;0.00;0.00;;;26.80;38.50;;;;;;5053580;28;20210;-50
2023/11/16 05:52:55;;;;;;;0.00;0.00;;;26.80;38.70;;;;;;5032221;28;20342;-51
2023/11/16 05:55:30;;;;;;;0.00;0.00;;;26.70;38.80;;;;;;5034859;28;20641;-51
2023/11/16 05:58:01;;;;;;;0.00;0.00;;;26.70;39.00;;;;;;5052558;28;20241;-50
2023/11/16 06:00:33;;;;;;;0.00;0.00;;;26.70;39.20;;;;;;5052213;28;20215;-51
2023/11/16 06:03:04;;;;;;;0.00;0.00;;;26.70;39.20;;;;;;5052460;28;20275;-54
2023/11/16 06:05:35;;;;;;;0.00;0.00;;;26.70;39.30;;;;;;5052077;28;20566;-54
2023/11/16 06:08:06;;;;;;;0.00;0.00;;;26.70;39.00;;;;;;5052807;28;20226;-52
2023/11/16 06:10:39;;;;;;;0.00;0.00;;;26.70;38.80;;;;;;5052453;28;20686;-52
2023/11/16 06:13:10;;;;;;;0.00;0.00;;;26.70;39.00;;;;;;5052835;28;20238;-55
2023/11/16 06:15:40;;;;;;;0.00;0.00;;;26.70;39.20;;;;;;5034006;28;20691;-48
2023/11/16 06:18:11;;;;;;;0.00;0.00;;;26.70;38.90;;;;;;5051441;28;20690;-55
2023/11/16 06:20:42;;;;;;;0.00;0.00;;;26.70;38.70;;;;;;5052267;28;20218;-49
2023/11/16 06:23:12;;;;;;;0.00;0.00;;;26.70;38.50;;;;;;5052096;28;20191;-51
2023/11/16 06:25:45;;;;;;;0.00;0.00;;;26.70;38.40;;;;;;5052524;28;20250;-51
2023/11/16 06:28:15;;;;;;;0.00;0.00;;;26.70;38.20;;;;;;5051569;28;20702;-51
2023/11/16 06:30:46;;;;;;;0.00;0.00;;;26.60;38.10;;;;;;5051814;28;20679;-56
2023/11/16 06:33:17;;;;;;;0.00;0.00;;;26.60;38.00;;;;;;5051678;28;20199;-55
2023/11/16 06:35:47;;;;;;;0.00;0.00;;;26.60;37.90;;;;;;5052430;28;20578;-54
2023/11/16 06:38:18;;;;;;;0.00;0.00;;;26.60;37.80;;;;;;5051554;28;20222;-55
2023/11/16 06:40:52;;;;;;;0.00;0.00;;;26.60;37.90;;;;;;5052227;28;20222;-48
2023/11/16 06:43:23;;;;;;;0.00;0.00;;;26.50;37.90;;;;;;5051317;28;20608;-51
2023/11/16 06:45:57;;;;;;;0.00;0.00;;;26.50;37.90;;;;;;5051995;28;20195;-53
2023/11/16 06:48:30;;;;;;;0.00;0.00;;;26.50;37.90;;;;;;5052535;28;20215;-50
2023/11/16 06:51:01;;;;;;;0.00;0.00;;;26.50;37.90;;;;;;5051748;28;20196;-54
2023/11/16 06:53:31;;;;;;;0.00;0.00;;;26.50;37.90;;;;;;5051837;28;20210;-53
2023/11/16 06:56:04;;;;;;;0.00;0.00;;;26.50;37.80;;;;;;5051851;28;20200;-48
2023/11/16 06:58:36;;;;;;;0.00;0.00;;;26.50;37.80;;;;;;5051656;28;20230;-47
2023/11/16 07:01:07;;;;;;;0.00;0.00;;;26.50;37.80;;;;;;5051079;28;20247;-53
2023/11/16 07:03:39;;;;;;;0.05;0.05;;;26.50;37.70;;;;;;5051995;28;20195;-51
2023/11/16 07:06:10;;;;;;;0.00;0.00;;;26.40;37.60;;;;;;5051894;28;20514;-54
2023/11/16 07:08:41;;;;;;;0.00;0.00;;;26.40;37.50;;;;;;5051515;28;20222;-52
2023/11/16 07:11:15;;;;;;;0.00;0.00;;;26.40;37.50;;;;;;5051890;28;20233;-47
2023/11/16 07:13:46;;;;;;;0.00;0.00;;;26.40;37.50;;;;;;5053008;28;20191;-53
2023/11/16 07:16:16;;;;;;;0.00;0.00;;;26.30;37.50;;;;;;5069963;28;20256;-51
2023/11/16 07:18:48;;;;;;;0.00;0.00;;;26.30;37.50;;;;;;5071520;28;20218;-46
2023/11/16 07:21:18;;;;;;;0.00;0.00;;;26.30;37.50;;;;;;5067747;28;20250;-56
2023/11/16 07:23:49;;;;;;;0.00;0.00;;;26.30;37.40;;;;;;5051230;28;20199;-52
2023/11/16 07:26:21;;;;;;;0.00;0.00;;;26.20;37.40;;;;;;5051413;28;20199;-55
2023/11/16 07:28:52;;;;;;;0.00;0.00;;;26.20;37.40;;;;;;5051195;28;20597;-54
2023/11/16 07:31:24;;;;;;;0.00;0.00;;;26.20;37.50;;;;;;5050535;28;20207;-54
2023/11/16 07:33:55;;;;;;;0.00;0.00;;;26.20;37.50;;;;;;5050997;28;20205;-45
2023/11/16 07:36:26;;;;;;;0.00;0.00;;;26.20;37.60;;;;;;5051356;28;20204;-46
2023/11/16 07:38:57;;;;;;;0.00;0.00;;;26.20;37.60;;;;;;5051123;28;20215;-53
2023/11/16 07:41:30;;;;;;;0.00;0.00;;;26.10;37.60;;;;;;5051131;28;20257;-54
2023/11/16 07:44:01;;;;;;;0.00;0.00;;;26.10;37.60;;;;;;5051432;28;20202;-51
2023/11/16 07:46:31;;;;;;;0.00;0.00;;;26.10;37.60;;;;;;5050944;28;20203;-55
2023/11/16 07:49:02;;;;;;;0.00;0.00;;;26.10;37.60;;;;;;5051359;28;20223;-56
2023/11/16 07:51:33;;;;;;;0.00;0.00;;;26.10;37.60;;;;;;5051387;28;20203;-49
2023/11/16 07:54:04;;;;;;;0.00;0.00;;;26.00;37.60;;;;;;5050814;28;20200;-56
2023/11/16 07:56:36;;;;;;;0.10;0.10;;;26.00;37.60;;;;;;5051287;28;20533;-54
2023/11/16 07:59:14;;;;;;;0.00;0.00;;;26.00;37.60;;;;;;5050812;28;20227;-52
2023/11/16 08:01:50;;;;;;;0.00;0.00;;;26.00;37.60;;;;;;5050726;28;20254;-54
2023/11/16 08:04:19;;;;;;;0.00;0.00;;;26.00;37.90;;;;;;5050895;28;20643;-47
2023/11/16 08:06:51;;;;;;;0.00;0.00;;;25.90;37.50;;;;;;5050570;28;20196;-52
2023/11/16 08:09:24;;;;;;;0.00;0.00;;;25.90;37.50;;;;;;5051009;28;20550;-54
2023/11/16 08:11:57;;;;;;;0.00;0.00;;;25.90;37.50;;;;;;5051007;28;20602;-49
2023/11/16 08:14:31;;;;;;;0.00;0.00;;;25.90;37.50;;;;;;5050861;28;20670;-53
2023/11/16 08:17:01;;;;;;;0.00;0.00;;;25.80;37.50;;;;;;5050041;28;20214;-54
2023/11/16 08:19:32;;;;;;;0.00;0.00;;;25.80;37.60;;;;;;5050627;28;20221;-54
2023/11/16 08:22:04;;;;;;;0.00;0.00;;;25.80;37.60;;;;;;5050575;28;20612;-55
2023/11/16 08:24:34;;;;;;;0.00;0.00;;;25.80;37.60;;;;;;5051217;28;20227;-50
2023/11/16 08:27:11;;;;;;;0.00;0.00;;;25.70;37.60;;;;;;5051417;28;20219;-54
2023/11/16 08:29:42;;;;;;;0.00;0.00;;;25.70;37.70;;;;;;5050221;28;20198;-53
2023/11/16 08:32:12;;;;;;;0.00;0.00;;;25.70;37.70;;;;;;5050318;28;20195;-53
2023/11/16 08:34:43;;;;;;;0.00;0.00;;;25.70;37.70;;;;;;5051026;28;20542;-50
2023/11/16 08:37:14;;;;;;;0.00;0.00;;;25.70;37.80;;;;;;5051260;28;20220;-51
2023/11/16 08:39:46;;;;;;;0.00;0.00;;;25.60;37.70;;;;;;5050413;28;20712;-54
2023/11/16 08:42:23;;;;;;;0.00;0.00;;;25.60;37.70;;;;;;5050199;28;20234;-52
2023/11/16 08:44:54;;;;;;;0.00;0.00;;;25.60;37.80;;;;;;5050277;28;20253;-55
2023/11/16 08:47:26;;;;;;;0.00;0.00;;;25.60;37.80;;;;;;5050225;28;20367;-49
2023/11/16 08:49:57;;;;;;;0.00;0.00;;;25.60;37.80;;;;;;5050896;28;20223;-52
2023/11/16 08:52:29;;;;;;;0.00;0.00;;;25.60;37.80;;;;;;5050903;28;20679;-53
2023/11/16 08:55:00;;;;;;;0.00;0.00;;;25.60;37.80;;;;;;5050465;28;20217;-56
2023/11/16 08:57:33;;;;;;;0.00;0.00;;;25.50;37.80;;;;;;5050409;28;20223;-55
2023/11/16 09:00:27;;;;;;;0.00;0.00;;;25.50;37.80;;;;;;5050186;28;20195;-56
2023/11/16 09:02:55;;;;;;;0.03;0.03;;;25.50;37.90;;;;;;5050361;28;20231;-56
2023/11/16 09:05:28;;;;;;;0.00;0.00;;;25.40;37.80;;;;;;5051507;28;20202;-56
2023/11/16 09:07:58;;;;;;;0.00;0.00;;;25.40;37.90;;;;;;5055451;28;20265;-54
2023/11/16 09:10:31;;;;;;;0.10;0.10;;;25.40;38.00;;;;;;5073685;28;20195;-46
2023/11/16 09:13:04;;;;;;;0.00;0.00;;;25.40;38.00;;;;;;5054693;28;20605;-53
2023/11/16 09:15:34;;;;;;;0.00;0.00;;;25.30;38.00;;;;;;5052685;28;20195;-55
2023/11/16 09:18:05;;;;;;;0.10;0.10;;;25.30;38.10;;;;;;5053255;28;20208;-55
2023/11/16 09:20:36;;;;;;;0.00;0.00;;;25.30;38.10;;;;;;5053464;28;20672;-53
2023/11/16 09:23:07;;;;;;;0.00;0.00;;;25.30;38.10;;;;;;5073320;28;20367;-57
2023/11/16 09:25:38;;;;;;;0.00;0.00;;;25.30;38.20;;;;;;5066372;28;20643;-56
2023/11/16 09:28:11;;;;;;;0.00;0.00;;;25.30;38.20;;;;;;5053450;28;20226;-56
2023/11/16 09:30:43;;;;;;;0.00;0.00;;;25.20;38.10;;;;;;5052528;28;20647;-56
2023/11/16 09:33:14;;;;;;;0.00;0.00;;;25.20;38.20;;;;;;5053525;28;20709;-55
2023/11/16 09:35:45;;;;;;;0.00;0.00;;;25.20;38.20;;;;;;5053229;28;20666;-56
2023/11/16 09:38:16;;;;;;;0.00;0.00;;;25.20;38.20;;;;;;5052879;28;20307;-55
2023/11/16 09:40:47;;;;;;;0.00;0.00;;;25.20;38.20;;;;;;5053167;28;20211;-56
2023/11/16 09:43:20;;;;;;;0.00;0.00;;;25.20;38.20;;;;;;5052198;28;20248;-56
2023/11/16 09:45:53;;;;;;;0.00;0.00;;;25.10;38.20;;;;;;5053147;28;20793;-54
2023/11/16 09:48:24;;;;;;;0.00;0.00;;;25.10;38.20;;;;;;5053132;28;20211;-56
2023/11/16 09:50:55;;;;;;;0.00;0.00;;;25.10;38.20;;;;;;5052731;28;20201;-55
2023/11/16 09:53:27;;;;;;;0.00;0.00;;;25.10;38.30;;;;;;5052625;28;20287;-56
2023/11/16 09:55:59;;;;;;;0.00;0.00;;;25.10;38.40;;;;;;5052021;28;20206;-56
2023/11/16 09:58:36;;;;;;;0.00;0.00;;;25.00;38.30;;;;;;5052311;28;20334;-54
2023/11/16 10:01:10;;;;;;;0.00;0.00;;;25.00;38.40;;;;;;5051762;28;20249;-55
2023/11/16 10:03:41;;;;;;;0.00;0.00;;;25.00;38.40;;;;;;5052444;28;20671;-55
2023/11/16 10:06:19;;;;;;;0.00;0.00;;;25.00;38.40;;;;;;5052194;28;20231;-56
2023/11/16 10:08:53;;;;;;;0.00;0.00;;;25.00;38.50;;;;;;5052645;28;20687;-57
2023/11/16 10:11:27;;;;;;;0.10;0.10;;;25.00;38.50;;;;;;5052267;28;20199;-56
2023/11/16 10:14:00;;;;;;;0.00;0.00;;;24.90;38.50;;;;;;5051843;28;20252;-46
2023/11/16 10:16:30;;;;;;;0.00;0.00;;;24.90;38.50;;;;;;5033998;28;20203;-56
2023/11/16 10:19:06;;;;;;;0.00;0.00;;;24.90;38.60;;;;;;5046393;28;20215;-55
2023/11/16 10:21:39;;;;;;;0.00;0.00;;;24.90;38.60;;;;;;5050688;28;20223;-56
2023/11/16 10:24:11;;;;;;;0.00;0.00;;;24.90;38.60;;;;;;5051530;28;20195;-56
2023/11/16 10:26:42;;;;;;;0.00;0.00;;;24.80;38.60;;;;;;5051102;28;20187;-54
2023/11/16 10:29:17;;;;;;;0.00;0.00;;;24.80;38.60;;;;;;5052787;28;20196;-55
2023/11/16 10:31:48;;;;;;;0.00;0.00;;;24.80;38.60;;;;;;5051852;28;20601;-56
2023/11/16 10:34:26;;;;;;;0.00;0.00;;;24.80;38.70;;;;;;5052316;28;20199;-53
2023/11/16 10:36:57;;;;;;;0.00;0.00;;;24.80;38.70;;;;;;5052534;28;20234;-55
2023/11/16 10:39:29;;;;;;;0.10;0.10;;;24.70;38.70;;;;;;5051390;28;20196;-54
2023/11/16 10:42:03;;;;;;;0.00;0.00;;;24.70;38.80;;;;;;5052776;28;20224;-56
2023/11/16 10:44:38;;;;;;;0.00;0.00;;;24.70;38.80;;;;;;5051337;28;20190;-57
2023/11/16 10:47:10;;;;;;;0.00;0.00;;;24.70;38.80;;;;;;5051436;28;20304;-56
2023/11/16 10:49:41;;;;;;;0.03;0.03;;;24.70;38.90;;;;;;5051964;28;20204;-54
2023/11/16 10:52:17;;;;;;;0.00;0.00;;;24.70;38.90;;;;;;5052535;28;20211;-51
2023/11/16 10:54:50;;;;;;;0.00;0.00;;;24.70;39.00;;;;;;5052378;28;20673;-56
2023/11/16 10:57:21;;;;;;;0.00;0.00;;;24.70;39.00;;;;;;5051913;28;20230;-51
2023/11/16 11:00:00;;;;;;;0.00;0.00;;;24.60;39.00;;;;;;5051967;28;20454;-50
2023/11/16 11:02:32;;;;;;;0.00;0.00;;;24.60;39.00;;;;;;5052097;28;20694;-55
2023/11/16 11:05:12;;;;;;;0.00;0.00;;;24.60;39.00;;;;;;5052156;28;20206;-51
2023/11/16 11:07:50;;;;;;;0.00;0.00;;;24.60;39.00;;;;;;5051801;28;20218;-56
2023/11/16 11:10:26;;;;;;;0.05;0.05;;;24.60;39.00;;;;;;5051860;28;20286;-55
2023/11/16 11:13:07;;;;;;;0.00;0.00;;;24.50;39.00;;;;;;5032051;28;20218;-55
2023/11/16 11:15:40;;;;;;;0.00;0.00;;;24.50;39.00;;;;;;5035634;28;20643;-56
2023/11/16 11:18:12;;;;;;;0.00;0.00;;;24.50;39.00;;;;;;5060596;28;20215;-59
2023/11/16 11:20:44;;;;;;;0.00;0.00;;;24.50;39.10;;;;;;5051274;28;20568;-55
2023/11/16 11:23:16;;;;;;;0.00;0.00;;;24.50;39.10;;;;;;5051292;28;20251;-51
2023/11/16 11:25:48;;;;;;;0.00;0.00;;;24.50;39.20;;;;;;5051600;28;20187;-48
2023/11/16 11:28:22;;;;;;;0.00;0.00;;;24.50;39.20;;;;;;5051283;28;20705;-53
2023/11/16 11:30:57;;;;;;;0.08;0.08;;;24.40;39.20;;;;;;5049355;28;20187;-53
2023/11/16 11:33:36;;;;;;;0.00;0.00;;;24.40;39.20;;;;;;5048883;28;20246;-54
2023/11/16 11:36:09;;;;;;;0.00;0.00;;;24.40;39.30;;;;;;5051467;28;20187;-55
2023/11/16 11:38:42;;;;;;;0.00;0.00;;;24.40;39.30;;;;;;5051362;28;20218;-51
2023/11/16 11:41:14;;;;;;;0.00;0.00;;;24.40;39.40;;;;;;5048917;28;20527;-49
2023/11/16 11:43:45;;;;;;;0.00;0.00;;;24.30;39.30;;;;;;5050983;28;20592;-50
2023/11/16 11:46:18;;;;;;;0.00;0.00;;;24.40;39.40;;;;;;5051169;28;20191;-53
2023/11/16 11:48:49;;;;;;;0.00;0.00;;;24.30;39.30;;;;;;5048887;28;20250;-56
2023/11/16 11:51:22;;;;;;;0.00;0.00;;;24.40;39.40;;;;;;5051192;28;20356;-50
2023/11/16 11:53:55;;;;;;;0.00;0.00;;;24.30;39.40;;;;;;5048694;28;20253;-52
2023/11/16 11:56:26;;;;;;;0.00;0.00;;;24.30;39.40;;;;;;5050676;28;20224;-51
2023/11/16 11:58:58;;;;;;;0.00;0.00;;;24.30;39.40;;;;;;5050811;28;20275;-50
2023/11/16 12:01:31;;;;;;;0.00;0.00;;;24.30;39.40;;;;;;5048690;28;20198;-57
2023/11/16 12:04:04;;;;;;;0.00;0.00;;;24.30;39.40;;;;;;5051245;28;20223;-51
2023/11/16 12:06:34;;;;;;;0.10;0.10;;;24.30;39.40;;;;;;5049426;28;20233;-51
2023/11/16 12:09:06;;;;;;;0.00;0.00;;;24.30;39.40;;;;;;5050557;28;20219;-50
2023/11/16 12:11:37;;;;;;;0.00;0.00;;;24.20;39.40;;;;;;5050481;28;20294;-50
2023/11/16 12:14:09;;;;;;;0.00;0.00;;;24.20;39.50;;;;;;5049022;28;20385;-54
2023/11/16 12:16:45;;;;;;;0.00;0.00;;;24.20;39.60;;;;;;5050919;28;20220;-50
2023/11/16 12:19:21;;;;;;;0.00;0.00;;;24.20;39.70;;;;;;5049437;28;20562;-50
2023/11/16 12:21:53;;;;;;;0.00;0.00;;;24.20;39.60;;;;;;5048723;28;20191;-53
2023/11/16 12:24:30;;;;;;;0.00;0.00;;;24.20;39.60;;;;;;5050693;28;20191;-57
2023/11/16 12:27:01;;;;;;;0.00;0.00;;;24.20;39.70;;;;;;5050974;28;20195;-56
2023/11/16 12:29:32;;;;;;;0.00;0.00;;;24.20;39.70;;;;;;5051181;28;20195;-57
2023/11/16 12:32:05;;;;;;;0.00;0.00;;;24.10;39.70;;;;;;5051150;28;20284;-56
2023/11/16 12:34:37;;;;;;;0.00;0.00;;;24.10;39.70;;;;;;5050878;28;20242;-55
2023/11/16 12:37:08;;;;;;;0.00;0.00;;;24.10;39.70;;;;;;5050888;28;20259;-53
2023/11/16 12:39:38;;;;;;;0.00;0.00;;;24.10;39.70;;;;;;5050868;28;20206;-58
2023/11/16 12:42:12;;;;;;;0.00;0.00;;;24.10;39.70;;;;;;5054870;28;20202;-57
2023/11/16 12:44:43;;;;;;;0.00;0.00;;;24.10;39.70;;;;;;5054861;28;20195;-50
2023/11/16 12:47:16;;;;;;;0.00;0.00;;;24.10;39.70;;;;;;5054788;28;20219;-53
2023/11/16 12:49:47;;;;;;;0.03;0.03;;;24.00;39.70;;;;;;5053736;28;20191;-49
2023/11/16 12:52:18;;;;;;;0.00;0.00;;;24.00;39.70;;;;;;5054238;28;20206;-51
2023/11/16 12:54:48;;;;;;;0.00;0.00;;;24.00;39.70;;;;;;5054192;28;20230;-53
2023/11/16 12:57:19;;;;;;;0.00;0.00;;;24.00;39.80;;;;;;5054059;28;20231;-48
2023/11/16 12:59:52;;;;;;;0.00;0.00;;;24.00;39.80;;;;;;5054503;28;20245;-51
2023/11/16 13:02:25;;;;;;;0.00;0.00;;;24.00;39.90;;;;;;5054765;28;20238;-51
2023/11/16 13:04:56;;;;;;;0.00;0.00;;;24.00;39.90;;;;;;5054654;28;20221;-57
2023/11/16 13:07:28;;;;;;;0.03;0.03;;;24.00;40.00;;;;;;5054469;28;20618;-48
2023/11/16 13:10:00;;;;;;;0.00;0.00;;;24.00;40.00;;;;;;5054470;28;20677;-45
2023/11/16 13:12:30;;;;;;;0.00;0.00;;;24.00;40.00;;;;;;5059485;28;20202;-48